createdAt,value
2019-04-20T00:00:51.505Z,24.54
2019-04-20T00:03:23.712Z,24.58
2019-04-20T00:05:53.115Z,24.62
2019-04-20T00:08:27.928Z,24.65
2019-04-20T00:11:04.254Z,24.66
2019-04-20T00:13:43.781Z,24.66
2019-04-20T00:16:14.837Z,24.71
2019-04-20T00:18:50.376Z,24.72
2019-04-20T00:21:46.418Z,24.72
2019-04-20T00:24:22.852Z,24.74
2019-04-20T00:29:42.356Z,24.79
2019-04-20T00:32:04.201Z,24.81
2019-04-20T00:34:30.078Z,24.82
2019-04-20T00:36:58.127Z,24.84
2019-04-20T00:39:29.845Z,24.86
2019-04-20T00:42:06.148Z,24.89
2019-04-20T00:44:36.230Z,24.93
2019-04-20T00:47:18.091Z,24.97
2019-04-20T00:49:50.949Z,24.98
2019-04-20T00:52:29.099Z,24.97
2019-04-20T00:54:41.266Z,25.01
2019-04-20T00:57:23.596Z,25.04
2019-04-20T01:00:04.950Z,25.08
2019-04-20T01:02:30.178Z,25.08
2019-04-20T01:05:04.003Z,25.09
2019-04-20T01:07:45.577Z,25.12
2019-04-20T01:10:13.553Z,25.11
2019-04-20T01:12:45.723Z,25.12
2019-04-20T01:15:26.783Z,25.17
2019-04-20T01:17:49.996Z,25.18
2019-04-20T01:20:22.632Z,25.22
2019-04-20T01:23:00.172Z,25.25
2019-04-20T01:25:32.368Z,25.28
2019-04-20T01:28:11.905Z,25.31
2019-04-20T01:30:37.574Z,25.33
2019-04-20T01:33:16.225Z,25.35
2019-04-20T01:35:50.106Z,25.38
2019-04-20T01:38:26.512Z,25.38
2019-04-20T01:40:40.248Z,25.41
2019-04-20T01:43:10.646Z,25.45
2019-04-20T01:45:43.944Z,25.51
2019-04-20T01:48:20.233Z,25.53
2019-04-20T01:50:55.076Z,25.54
2019-04-20T01:53:39.355Z,25.56
2019-04-20T01:56:15.362Z,25.57
2019-04-20T01:58:58.171Z,25.59
2019-04-20T02:01:36.199Z,25.59
2019-04-20T02:04:17.107Z,25.63
2019-04-20T02:06:47.194Z,25.66
2019-04-20T02:09:19.188Z,25.70
2019-04-20T02:11:48.796Z,25.71
2019-04-20T02:14:26.220Z,25.72
2019-04-20T02:17:03.185Z,25.73
2019-04-20T02:19:37.872Z,25.79
2019-04-20T02:22:09.915Z,25.83
2019-04-20T02:24:28.319Z,25.86
2019-04-20T02:26:59.885Z,25.87
2019-04-20T02:29:50.971Z,25.90
2019-04-20T02:32:42.305Z,25.93
2019-04-20T02:35:25.630Z,25.94
2019-04-20T02:43:38.924Z,26.02
2019-04-20T02:48:21.621Z,26.10
2019-04-20T02:50:50.119Z,26.17
2019-04-20T02:53:51.116Z,26.16
2019-04-20T02:56:00.132Z,26.22
2019-04-20T03:00:55.482Z,26.31
2019-04-20T03:03:16.347Z,26.32
2019-04-20T03:05:45.431Z,26.34
2019-04-20T03:08:22.133Z,26.35
2019-04-20T03:11:03.692Z,26.37
2019-04-20T03:13:32.263Z,26.40
2019-04-20T03:16:08.671Z,26.42
2019-04-20T03:18:35.036Z,26.44
2019-04-20T03:21:12.765Z,26.47
2019-04-20T03:23:47.996Z,26.52
2019-04-20T03:26:16.145Z,26.53
2019-04-20T03:29:18.357Z,26.55
2019-04-20T03:35:00.599Z,26.61
2019-04-20T03:37:20.408Z,26.65
2019-04-20T03:39:40.741Z,26.68
2019-04-20T03:42:00.471Z,26.72
2019-04-20T03:44:35.981Z,26.75
2019-04-20T03:47:10.313Z,26.78
2019-04-20T03:50:02.717Z,26.82
2019-04-20T03:52:59.129Z,26.84
2019-04-20T03:55:34.185Z,26.87
2019-04-20T03:58:14.042Z,26.93
2019-04-20T04:01:08.273Z,26.96
2019-04-20T04:03:59.166Z,27.00
2019-04-20T04:06:22.829Z,27.05
2019-04-20T04:08:58.117Z,27.08
2019-04-20T04:11:31.162Z,27.12
2019-04-20T04:13:48.538Z,27.15
2019-04-20T04:16:21.948Z,27.20
2019-04-20T04:19:01.383Z,27.25
2019-04-20T04:21:41.184Z,27.29
2019-04-20T04:24:09.438Z,27.33
2019-04-20T04:26:44.166Z,27.37
2019-04-20T04:29:28.838Z,27.42
2019-04-20T04:32:01.358Z,27.46
2019-04-20T04:34:30.830Z,27.53
2019-04-20T04:37:03.253Z,27.60
2019-04-20T04:39:36.966Z,27.63
2019-04-20T04:42:14.208Z,27.70
2019-04-20T04:44:33.551Z,27.75
2019-04-20T04:46:56.050Z,27.78
2019-04-20T04:49:28.503Z,27.83
2019-04-20T04:52:02.165Z,27.90
2019-04-20T04:54:37.686Z,27.94
2019-04-20T04:57:01.017Z,28.02
2019-04-20T04:59:31.733Z,28.09
2019-04-20T05:02:03.324Z,28.16
2019-04-20T05:05:30.868Z,28.22
2019-04-20T05:07:57.578Z,28.29
2019-04-20T05:10:16.148Z,28.39
2019-04-20T05:12:50.208Z,28.46
2019-04-20T05:15:37.612Z,28.55
2019-04-20T05:18:13.105Z,28.63
2019-04-20T05:20:54.682Z,28.71
2019-04-20T05:23:28.192Z,28.75
2019-04-20T05:26:22.665Z,28.79
2019-04-20T05:28:45.026Z,28.86
2019-04-20T05:31:06.322Z,28.93
2019-04-20T05:34:03.928Z,28.97
2019-04-20T05:36:31.026Z,29.06
2019-04-20T05:39:11.715Z,29.13
2019-04-20T05:41:32.830Z,29.21
2019-04-20T05:44:16.933Z,29.29
2019-04-20T05:46:56.870Z,29.39
2019-04-20T05:49:25.799Z,29.47
2019-04-20T05:52:07.758Z,29.57
2019-04-20T05:54:32.635Z,29.62
2019-04-20T05:57:17.476Z,29.67
2019-04-20T05:59:45.030Z,29.76
2019-04-20T06:02:16.896Z,29.85
2019-04-20T06:07:21.145Z,30.03
2019-04-20T06:09:54.457Z,30.07
2019-04-20T06:12:33.099Z,30.12
2019-04-20T06:15:08.308Z,30.20
2019-04-20T06:17:57.981Z,30.28
2019-04-20T06:20:37.986Z,30.34
2019-04-20T06:23:34.526Z,30.45
2019-04-20T06:26:20.550Z,30.61
2019-04-20T06:28:26.942Z,30.76
2019-04-20T06:30:56.863Z,30.88
2019-04-20T06:34:41.363Z,30.99
2019-04-20T06:37:12.540Z,31.02
2019-04-20T06:39:37.018Z,31.11
2019-04-20T06:42:14.732Z,31.19
2019-04-20T06:45:02.086Z,31.24
2019-04-20T06:49:42.467Z,31.41
2019-04-20T06:52:29.776Z,31.51
2019-04-20T06:55:03.042Z,31.60
2019-04-20T07:02:44.290Z,31.99
2019-04-20T07:05:18.751Z,32.07
2019-04-20T07:10:35.848Z,32.21
2019-04-20T07:12:56.567Z,32.32
2019-04-20T07:15:46.474Z,32.43
2019-04-20T07:18:29.996Z,32.53
2019-04-20T07:21:07.178Z,32.62
2019-04-20T07:23:42.212Z,32.73
2019-04-20T07:26:17.034Z,32.82
2019-04-20T07:28:46.916Z,33.00
2019-04-20T07:31:13.124Z,33.14
2019-04-20T07:33:46.660Z,33.32
2019-04-20T07:36:26.589Z,33.44
2019-04-20T07:38:57.950Z,33.52
2019-04-20T07:41:32.975Z,33.62
2019-04-20T07:44:03.527Z,33.67
2019-04-20T07:46:47.175Z,33.71
2019-04-20T07:49:07.330Z,33.76
2019-04-20T07:51:23.116Z,33.88
2019-04-20T07:54:21.999Z,33.92
2019-04-20T07:56:42.322Z,33.97
2019-04-20T07:58:58.689Z,34.06
2019-04-20T08:02:32.418Z,34.13
2019-04-20T08:04:56.356Z,34.22
2019-04-20T08:07:14.610Z,34.30
2019-04-20T08:09:53.279Z,34.29
2019-04-20T08:12:51.719Z,34.29
2019-04-20T08:15:33.467Z,34.35
2019-04-20T08:17:56.903Z,34.46
2019-04-20T08:20:19.962Z,34.56
2019-04-20T08:22:58.710Z,34.71
2019-04-20T08:25:25.291Z,34.88
2019-04-20T08:27:59.122Z,35.04
2019-04-20T08:31:06.675Z,35.11
2019-04-20T08:33:47.169Z,35.18
2019-04-20T08:36:17.046Z,35.22
2019-04-20T08:39:06.429Z,35.22
2019-04-20T08:41:17.982Z,35.31
2019-04-20T08:44:06.433Z,35.46
2019-04-20T08:46:27.843Z,35.56
2019-04-20T08:48:58.167Z,35.63
2019-04-20T08:51:31.786Z,35.68
2019-04-20T08:54:00.007Z,35.73
2019-04-20T08:56:24.604Z,35.73
2019-04-20T08:58:45.750Z,35.76
2019-04-20T09:01:23.655Z,35.83
2019-04-20T09:03:59.025Z,35.83
2019-04-20T09:06:39.951Z,35.87
2019-04-20T09:09:29.089Z,35.78
2019-04-20T09:11:49.256Z,35.73
2019-04-20T09:14:23.665Z,35.78
2019-04-20T09:17:07.917Z,35.77
2019-04-20T09:19:45.426Z,35.77
2019-04-20T09:22:34.088Z,35.79
2019-04-20T09:25:42.716Z,35.76
2019-04-20T09:27:45.841Z,35.73
2019-04-20T09:30:29.279Z,35.73
2019-04-20T09:33:09.276Z,35.69
2019-04-20T09:35:43.285Z,35.62
2019-04-20T09:38:11.789Z,35.63
2019-04-20T09:40:50.356Z,35.56
2019-04-20T09:43:28.585Z,35.49
2019-04-20T09:46:03.663Z,35.46
2019-04-20T09:48:40.793Z,35.36
2019-04-20T09:51:30.778Z,35.23
2019-04-20T09:53:50.569Z,35.28
2019-04-20T09:56:32.416Z,35.25
2019-04-20T09:59:08.185Z,35.12
2019-04-20T10:01:31.187Z,35.06
2019-04-20T10:03:52.732Z,35.03
2019-04-20T10:06:27.267Z,34.92
2019-04-20T10:08:58.303Z,34.79
2019-04-20T10:11:30.031Z,34.83
2019-04-20T10:14:02.059Z,34.72
2019-04-20T10:16:33.890Z,34.62
2019-04-20T10:19:10.508Z,34.51
2019-04-20T10:21:40.027Z,34.40
2019-04-20T10:24:10.667Z,34.33
2019-04-20T10:26:41.085Z,34.30
2019-04-20T10:29:11.582Z,34.21
2019-04-20T10:31:50.489Z,34.06
2019-04-20T10:34:20.692Z,33.98
2019-04-20T10:37:09.389Z,33.85
2019-04-20T10:39:42.897Z,33.78
2019-04-20T10:42:18.620Z,33.55
2019-04-20T10:44:55.311Z,33.50
2019-04-20T10:47:25.416Z,33.37
2019-04-20T10:49:56.503Z,33.29
2019-04-20T10:52:29.790Z,33.16
2019-04-20T10:55:02.850Z,33.06
2019-04-20T10:57:37.632Z,32.88
2019-04-20T11:00:09.869Z,32.78
2019-04-20T11:02:44.209Z,32.65
2019-04-20T11:05:16.939Z,32.63
2019-04-20T11:07:52.551Z,32.49
2019-04-20T11:10:28.804Z,32.34
2019-04-20T11:12:57.243Z,32.22
2019-04-20T11:15:36.592Z,32.04
2019-04-20T11:18:13.875Z,31.91
2019-04-20T11:20:55.314Z,31.81
2019-04-20T11:23:29.033Z,31.78
2019-04-20T11:26:02.305Z,31.61
2019-04-20T11:28:35.816Z,31.58
2019-04-20T11:31:10.243Z,31.47
2019-04-20T11:34:00.365Z,31.33
2019-04-20T11:36:33.014Z,31.14
2019-04-20T11:39:07.219Z,31.02
2019-04-20T11:41:41.528Z,30.88
2019-04-20T11:44:13.783Z,30.87
2019-04-20T11:46:44.932Z,30.74
2019-04-20T11:49:28.084Z,30.63
2019-04-20T11:52:03.622Z,30.59
2019-04-20T11:54:48.521Z,30.41
2019-04-20T11:57:22.803Z,30.35
2019-04-20T11:59:54.926Z,30.18
2019-04-20T12:02:43.912Z,30.10
2019-04-20T12:05:32.447Z,29.96
2019-04-20T12:08:05.159Z,29.87
2019-04-20T12:10:37.103Z,29.72
2019-04-20T12:13:10.235Z,29.63
2019-04-20T12:15:41.847Z,29.59
2019-04-20T12:18:15.790Z,29.42
2019-04-20T12:20:47.055Z,29.37
2019-04-20T12:23:18.176Z,29.22
2019-04-20T12:25:52.722Z,29.12
2019-04-20T12:28:29.581Z,29.05
2019-04-20T12:31:11.403Z,28.92
2019-04-20T12:33:34.621Z,28.80
2019-04-20T12:36:08.238Z,28.76
2019-04-20T12:38:51.353Z,28.56
2019-04-20T12:41:34.427Z,28.52
2019-04-20T12:44:15.429Z,28.42
2019-04-20T12:46:54.021Z,28.31
2019-04-20T12:49:31.835Z,28.19
2019-04-20T12:52:05.136Z,28.06
2019-04-20T12:54:34.594Z,28.00
2019-04-20T12:57:12.162Z,27.94
2019-04-20T12:59:54.070Z,27.87
2019-04-20T13:02:31.537Z,27.74
2019-04-20T13:05:07.215Z,27.70
2019-04-20T13:07:39.661Z,27.59
2019-04-20T13:10:09.878Z,27.47
2019-04-20T13:13:00.582Z,27.37
2019-04-20T13:15:50.545Z,27.35
2019-04-20T13:18:27.342Z,27.23
2019-04-20T13:21:01.769Z,27.20
2019-04-20T13:23:37.260Z,27.12
2019-04-20T13:26:12.272Z,26.96
2019-04-20T13:28:46.768Z,26.93
2019-04-20T13:31:19.956Z,26.82
2019-04-20T13:33:53.209Z,26.77
2019-04-20T13:36:24.266Z,26.68
2019-04-20T13:38:59.670Z,26.65
2019-04-20T13:41:33.748Z,26.60
2019-04-20T13:44:08.374Z,26.48
2019-04-20T13:46:42.659Z,26.46
2019-04-20T13:49:13.236Z,26.37
2019-04-20T13:51:44.570Z,26.27
2019-04-20T13:54:18.869Z,26.16
2019-04-20T13:56:49.018Z,26.12
2019-04-20T13:59:40.794Z,26.08
2019-04-20T14:02:28.950Z,25.96
2019-04-20T14:05:04.655Z,25.89
2019-04-20T14:07:51.394Z,25.81
2019-04-20T14:10:21.918Z,25.50
2019-04-20T14:13:00.553Z,25.70
2019-04-20T14:15:27.003Z,25.70
2019-04-20T14:17:59.391Z,25.66
2019-04-20T14:20:32.409Z,25.66
2019-04-20T14:23:03.163Z,25.44
2019-04-20T14:25:33.755Z,25.36
2019-04-20T14:28:04.926Z,25.32
2019-04-20T14:30:35.433Z,25.30
2019-04-20T14:33:05.985Z,25.20
2019-04-20T14:35:38.818Z,25.20
2019-04-20T14:38:09.903Z,25.00
2019-04-20T14:40:40.428Z,25.00
2019-04-20T14:43:13.083Z,25.00
2019-04-20T14:45:45.222Z,24.89
2019-04-20T14:48:16.370Z,24.85
2019-04-20T14:50:49.637Z,24.81
2019-04-20T14:53:23.315Z,24.72
2019-04-20T14:55:55.819Z,24.69
2019-04-20T14:58:45.667Z,24.63
2019-04-20T15:01:30.213Z,24.57
2019-04-20T15:04:06.871Z,24.51
2019-04-20T15:06:36.169Z,24.48
2019-04-20T15:09:10.623Z,24.40
2019-04-20T15:11:47.059Z,24.36
2019-04-20T15:14:18.689Z,24.30
2019-04-20T15:16:50.744Z,24.27
2019-04-20T15:19:39.138Z,24.26
2019-04-20T15:22:27.437Z,24.21
2019-04-20T15:24:59.976Z,24.08
2019-04-20T15:27:33.208Z,24.01
2019-04-20T15:30:06.814Z,23.95
2019-04-20T15:32:40.952Z,23.89
2019-04-20T15:35:13.472Z,23.83
2019-04-20T15:37:45.107Z,23.78
2019-04-20T15:40:17.289Z,23.67
2019-04-20T15:42:56.612Z,23.59
2019-04-20T15:45:21.175Z,23.55
2019-04-20T15:47:52.225Z,23.54
2019-04-20T15:50:23.750Z,23.52
2019-04-20T15:52:55.318Z,23.46
2019-04-20T15:55:31.140Z,23.41
2019-04-20T15:58:04.627Z,23.36
2019-04-20T16:00:34.239Z,23.33
2019-04-20T16:03:17.512Z,23.31
2019-04-20T16:05:56.506Z,23.25
2019-04-20T16:08:32.442Z,23.24
2019-04-20T16:11:04.924Z,23.18
2019-04-20T16:13:40.231Z,23.17
2019-04-20T16:16:09.955Z,23.18
2019-04-20T16:18:41.068Z,23.14
2019-04-20T16:21:20.949Z,23.09
2019-04-20T16:24:10.903Z,23.06
2019-04-20T16:27:14.140Z,23.05
2019-04-20T16:29:47.424Z,23.05
2019-04-20T16:32:18.440Z,23.06
2019-04-20T16:34:50.599Z,23.01
2019-04-20T16:37:22.325Z,22.99
2019-04-20T16:39:52.838Z,22.98
2019-04-20T16:42:24.435Z,22.95
2019-04-20T16:44:59.128Z,22.96
2019-04-20T16:47:36.927Z,22.95
2019-04-20T16:50:08.854Z,22.93
2019-04-20T16:52:40.963Z,22.91
2019-04-20T16:55:16.608Z,22.90
2019-04-20T16:57:51.701Z,22.89
2019-04-20T17:00:23.453Z,22.89
2019-04-20T17:02:54.365Z,22.88
2019-04-20T17:05:25.788Z,22.87
2019-04-20T17:07:57.340Z,22.86
2019-04-20T17:10:30.716Z,22.83
2019-04-20T17:13:04.088Z,22.83
2019-04-20T17:15:34.870Z,22.82
2019-04-20T17:18:07.597Z,22.81
2019-04-20T17:20:40.992Z,22.79
2019-04-20T17:23:13.283Z,22.79
2019-04-20T17:25:43.859Z,22.77
2019-04-20T17:28:28.978Z,22.78
2019-04-20T17:31:17.562Z,22.77
2019-04-20T17:34:01.519Z,22.78
2019-04-20T17:36:29.856Z,22.77
2019-04-20T17:39:06.212Z,22.75
2019-04-20T17:42:00.375Z,22.77
2019-04-20T17:44:30.277Z,22.75
2019-04-20T17:46:59.134Z,22.75
2019-04-20T17:49:31.525Z,22.75
2019-04-20T17:52:22.313Z,22.76
2019-04-20T17:54:35.481Z,22.76
2019-04-20T17:57:10.965Z,22.77
2019-04-20T17:59:55.356Z,22.75
2019-04-20T18:02:59.295Z,22.79
2019-04-20T18:05:58.171Z,22.78
2019-04-20T18:08:27.270Z,22.77
2019-04-20T18:10:53.220Z,22.78
2019-04-20T18:13:18.513Z,22.78
2019-04-20T18:16:04.625Z,22.80
2019-04-20T18:18:50.349Z,22.80
2019-04-20T18:21:28.784Z,22.80
2019-04-20T18:24:00.463Z,22.80
2019-04-20T18:26:51.961Z,22.80
2019-04-20T18:29:26.089Z,22.82
2019-04-20T18:31:44.941Z,22.80
2019-04-20T18:34:27.332Z,22.82
2019-04-20T18:37:07.687Z,22.81
2019-04-20T18:39:41.393Z,22.82
2019-04-20T18:42:14.292Z,22.83
2019-04-20T18:44:57.136Z,22.83
2019-04-20T18:47:33.231Z,22.84
2019-04-20T18:49:55.182Z,22.84
2019-04-20T18:52:15.821Z,22.87
2019-04-20T18:54:48.404Z,22.89
2019-04-20T18:57:26.954Z,22.88
2019-04-20T18:59:54.800Z,22.89
2019-04-20T19:02:30.872Z,22.92
2019-04-20T19:05:01.377Z,22.93
2019-04-20T19:07:40.142Z,22.94
2019-04-20T19:10:14.559Z,22.94
2019-04-20T19:12:46.156Z,22.95
2019-04-20T19:15:55.184Z,22.99
2019-04-20T19:20:59.580Z,22.99
2019-04-20T19:23:36.594Z,22.99
2019-04-20T19:26:11.951Z,23.00
2019-04-20T19:28:45.098Z,23.05
2019-04-20T19:31:28.720Z,23.04
2019-04-20T19:34:13.003Z,23.06
2019-04-20T19:36:34.154Z,23.07
2019-04-20T19:39:15.197Z,23.08
2019-04-20T19:41:42.233Z,23.09
2019-04-20T19:44:13.127Z,23.11
2019-04-20T19:47:05.371Z,23.12
2019-04-20T19:49:24.416Z,23.15
2019-04-20T19:52:16.034Z,23.14
2019-04-20T19:54:38.979Z,23.16
2019-04-20T19:57:01.297Z,23.18
2019-04-20T19:59:31.018Z,23.18
2019-04-20T20:01:53.767Z,23.19
2019-04-20T20:04:25.759Z,23.21
2019-04-20T20:07:05.158Z,23.20
2019-04-20T20:09:37.875Z,23.24
2019-04-20T20:12:11.896Z,23.29
2019-04-20T20:14:46.098Z,23.32
2019-04-20T20:17:32.879Z,23.32
2019-04-20T20:20:14.704Z,23.33
2019-04-20T20:22:27.843Z,23.34
2019-04-20T20:24:51.230Z,23.38
2019-04-20T20:27:31.499Z,23.41
2019-04-20T20:30:07.032Z,23.43
2019-04-20T20:32:47.047Z,23.44
2019-04-20T20:35:11.123Z,23.45
2019-04-20T20:37:42.471Z,23.48
2019-04-20T20:40:19.905Z,23.49
2019-04-20T20:42:52.642Z,23.53
2019-04-20T20:45:22.995Z,23.55
2019-04-20T20:48:03.885Z,23.59
2019-04-20T20:50:42.730Z,23.59
2019-04-20T20:53:05.043Z,23.62
2019-04-20T20:55:32.141Z,23.63
2019-04-20T20:58:08.502Z,23.63
2019-04-20T21:00:38.797Z,23.66
2019-04-20T21:03:06.230Z,23.68
2019-04-20T21:05:37.649Z,23.69
2019-04-20T21:08:08.515Z,23.70
2019-04-20T21:10:42.908Z,23.75
2019-04-20T21:13:16.948Z,23.76
2019-04-20T21:15:53.914Z,23.82
2019-04-20T21:18:43.525Z,23.83
2019-04-20T21:21:06.263Z,23.85
2019-04-20T21:23:40.446Z,23.89
2019-04-20T21:26:20.299Z,23.89
2019-04-20T21:28:45.793Z,23.94
2019-04-20T21:31:23.478Z,23.96
2019-04-20T21:33:51.072Z,23.99
2019-04-20T21:36:26.230Z,24.02
2019-04-20T21:38:53.941Z,24.03
2019-04-20T21:41:26.073Z,24.06
2019-04-20T21:43:58.265Z,24.08
2019-04-20T21:46:36.221Z,24.10
2019-04-20T21:49:12.836Z,24.12
2019-04-20T21:51:44.327Z,24.16
2019-04-20T21:54:08.116Z,24.16
2019-04-20T21:56:46.142Z,24.19
2019-04-20T21:59:20.497Z,24.20
2019-04-20T22:01:55.069Z,24.21
2019-04-20T22:04:22.931Z,24.24
2019-04-20T22:06:56.212Z,24.25
2019-04-20T22:09:34.425Z,24.25
2019-04-20T22:12:02.115Z,24.30
2019-04-20T22:14:33.984Z,24.31
2019-04-20T22:17:05.483Z,24.34
2019-04-20T22:19:44.065Z,24.37
2019-04-20T22:22:18.519Z,24.37
2019-04-20T22:24:56.348Z,24.40
2019-04-20T22:27:22.398Z,24.37
2019-04-20T22:29:50.141Z,24.39
2019-04-20T22:32:22.576Z,24.40
2019-04-20T22:34:59.874Z,24.43
2019-04-20T22:37:30.488Z,24.44
2019-04-20T22:40:03.227Z,24.47
2019-04-20T22:42:42.887Z,24.48
2019-04-20T22:45:09.859Z,24.50
2019-04-20T22:47:39.165Z,24.52
2019-04-20T22:50:28.153Z,24.53
2019-04-20T22:52:55.914Z,24.53
2019-04-20T22:55:42.722Z,24.54
2019-04-20T22:58:01.311Z,24.58
2019-04-20T23:00:34.239Z,24.60
2019-04-20T23:03:00.749Z,24.62
2019-04-20T23:05:31.235Z,24.63
2019-04-20T23:08:02.487Z,24.64
2019-04-20T23:10:37.736Z,24.68
2019-04-20T23:13:05.318Z,24.71
2019-04-20T23:15:36.306Z,24.72
2019-04-20T23:18:06.662Z,24.72
2019-04-20T23:20:39.446Z,24.73
2019-04-20T23:23:12.400Z,24.77
2019-04-20T23:25:41.345Z,24.80
2019-04-20T23:28:14.779Z,24.79
2019-04-20T23:30:45.638Z,24.81
2019-04-20T23:33:18.142Z,24.83
2019-04-20T23:35:52.381Z,24.82
2019-04-20T23:38:23.178Z,24.88
2019-04-20T23:40:52.499Z,24.91
2019-04-20T23:43:33.346Z,24.94
2019-04-20T23:46:31.493Z,24.96
2019-04-20T23:49:54.429Z,24.98
2019-04-20T23:52:32.297Z,24.99
2019-04-20T23:54:51.320Z,25.03
2019-04-20T23:57:15.696Z,25.07
2019-04-20T23:59:48.644Z,25.08
